Time;durP1;ratioP1;P1;durP2;ratioP2;P2;SDS_P1;SDS_P2;PMS_P1;PMS_P2;Temp;Humidity;BMP_temperature;BMP_pressure;BME280_temperature;BME280_humidity;BME280_pressure;Samples;Min_cycle;Max_cycle;Signal;HPM_P1;HPM_P2
2021/03/10 00:00:58;;;;;;;10.88;4.07;;;-4.20;85.70;;;;;;5091178;28;20023;-55
2021/03/10 00:03:25;;;;;;;9.60;4.05;;;-4.20;85.00;;;;;;5090987;28;20028;-58
2021/03/10 00:05:50;;;;;;;8.30;3.80;;;-4.30;84.80;;;;;;5091377;28;20032;-58
2021/03/10 00:08:16;;;;;;;12.02;5.10;;;-4.20;87.40;;;;;;5090461;28;20036;-55
2021/03/10 00:10:41;;;;;;;10.85;5.47;;;-4.20;87.40;;;;;;5091162;28;20024;-55
2021/03/10 00:13:08;;;;;;;12.80;4.47;;;-4.20;86.70;;;;;;5089663;28;20031;-57
2021/03/10 00:15:34;;;;;;;13.55;5.75;;;-4.30;85.50;;;;;;5068686;28;20037;-56
2021/03/10 00:17:59;;;;;;;11.45;4.90;;;-4.30;85.20;;;;;;5073670;28;20028;-57
2021/03/10 00:20:25;;;;;;;10.23;4.38;;;-4.40;86.20;;;;;;5090834;28;20028;-58
2021/03/10 00:22:50;;;;;;;11.02;5.40;;;-4.40;87.10;;;;;;5090681;28;20040;-57
2021/03/10 00:25:18;;;;;;;10.93;4.10;;;-4.30;87.90;;;;;;5090763;28;20020;-55
2021/03/10 00:27:43;;;;;;;12.55;4.65;;;-4.20;87.50;;;;;;5085998;28;20383;-55
2021/03/10 00:30:11;;;;;;;14.27;6.03;;;-4.20;87.80;;;;;;5090813;28;20039;-56
2021/03/10 00:32:38;;;;;;;15.85;6.18;;;-4.20;86.10;;;;;;5072723;28;20021;-56
2021/03/10 00:35:05;;;;;;;13.00;5.07;;;-4.20;86.90;;;;;;5072108;28;20039;-57
2021/03/10 00:37:30;;;;;;;13.82;5.65;;;-4.20;88.40;;;;;;5072146;28;20161;-57
2021/03/10 00:39:56;;;;;;;12.63;5.72;;;-4.10;86.60;;;;;;5072231;28;20103;-55
2021/03/10 00:42:22;;;;;;;11.82;4.75;;;-4.20;87.10;;;;;;5072050;28;20052;-58
2021/03/10 00:44:47;;;;;;;20.42;5.80;;;-4.30;87.00;;;;;;5071286;28;20024;-57
2021/03/10 00:47:13;;;;;;;13.02;4.68;;;-4.40;86.20;;;;;;5071964;28;20087;-56
2021/03/10 00:49:40;;;;;;;16.88;7.32;;;-4.40;86.30;;;;;;5072255;28;20389;-58
2021/03/10 00:52:06;;;;;;;12.23;5.28;;;-4.40;86.60;;;;;;5072237;28;20036;-56
2021/03/10 00:54:33;;;;;;;12.45;5.10;;;-4.30;88.00;;;;;;5071939;28;20136;-53
2021/03/10 00:56:58;;;;;;;17.30;7.45;;;-4.20;87.90;;;;;;5072014;28;20036;-56
2021/03/10 00:59:24;;;;;;;14.95;5.85;;;-4.20;87.70;;;;;;5070866;28;20059;-56
2021/03/10 01:01:49;;;;;;;13.52;5.47;;;-4.10;86.60;;;;;;5072217;28;20041;-57
2021/03/10 01:04:15;;;;;;;15.68;5.78;;;-4.10;86.40;;;;;;5072078;28;20025;-54
2021/03/10 01:06:40;;;;;;;11.13;4.80;;;-4.10;86.40;;;;;;5072005;28;20031;-52
2021/03/10 01:09:07;;;;;;;12.75;5.38;;;-4.10;87.40;;;;;;5072024;28;20033;-56
2021/03/10 01:11:33;;;;;;;15.75;5.93;;;-4.10;85.90;;;;;;5071933;28;20172;-54
2021/03/10 01:13:59;;;;;;;14.57;5.75;;;-4.10;87.10;;;;;;5071035;28;20116;-57
2021/03/10 01:16:24;;;;;;;15.35;6.40;;;-4.00;85.40;;;;;;5071888;28;20498;-55
2021/03/10 01:18:50;;;;;;;10.77;5.03;;;-4.00;87.30;;;;;;5073104;28;20036;-57
2021/03/10 01:21:15;;;;;;;11.90;6.25;;;-4.00;85.70;;;;;;5075678;28;20032;-56
2021/03/10 01:23:41;;;;;;;11.20;4.90;;;-4.00;85.90;;;;;;5075489;28;20028;-58
2021/03/10 01:26:06;;;;;;;16.77;5.90;;;-4.10;84.70;;;;;;5075813;28;20147;-55
2021/03/10 01:28:32;;;;;;;12.38;5.35;;;-4.10;86.00;;;;;;5074550;28;20036;-58
2021/03/10 01:30:57;;;;;;;13.07;6.35;;;-4.10;86.00;;;;;;5073581;28;20113;-57
2021/03/10 01:33:23;;;;;;;17.67;6.43;;;-4.00;84.70;;;;;;5075349;28;20032;-56
2021/03/10 01:35:49;;;;;;;16.33;5.00;;;-4.00;85.30;;;;;;5075598;28;20024;-55
2021/03/10 01:38:14;;;;;;;18.55;6.28;;;-4.10;86.90;;;;;;5074044;28;20078;-57
2021/03/10 01:40:40;;;;;;;20.02;7.40;;;-4.10;85.70;;;;;;5075375;28;20028;-59
2021/03/10 01:43:07;;;;;;;12.18;5.75;;;-4.10;85.10;;;;;;5074365;28;20024;-55
2021/03/10 01:45:34;;;;;;;18.65;7.03;;;-4.10;85.60;;;;;;5075185;28;20476;-53
2021/03/10 01:48:00;;;;;;;15.30;6.20;;;-4.20;85.30;;;;;;5075259;28;20047;-57
2021/03/10 01:50:27;;;;;;;14.27;6.78;;;-4.30;85.20;;;;;;5075017;28;20348;-53
2021/03/10 01:52:54;;;;;;;13.18;5.68;;;-4.30;85.90;;;;;;5075001;28;20044;-54
2021/03/10 01:55:20;;;;;;;14.48;5.38;;;-4.30;85.70;;;;;;5073740;28;20053;-55
2021/03/10 01:57:46;;;;;;;17.08;6.85;;;-4.30;85.70;;;;;;5072649;28;20093;-56
2021/03/10 02:00:12;;;;;;;16.45;6.47;;;-4.40;86.00;;;;;;5073764;28;20472;-57
2021/03/10 02:02:37;;;;;;;17.27;7.22;;;-4.40;86.60;;;;;;5075048;28;20024;-58
2021/03/10 02:05:04;;;;;;;17.70;6.47;;;-4.40;85.70;;;;;;5074887;28;20476;-55
2021/03/10 02:08:04;;;;;;;18.00;6.70;;;-4.40;85.40;;;;;;5074913;28;20029;-55
2021/03/10 02:10:50;;;;;;;15.15;5.72;;;-4.40;86.70;;;;;;5074933;28;20032;-56
2021/03/10 02:13:22;;;;;;;16.77;6.63;;;-4.40;86.40;;;;;;5073990;28;20036;-58
2021/03/10 02:15:54;;;;;;;12.48;5.35;;;-4.50;85.30;;;;;;5074606;28;20051;-58
2021/03/10 02:18:25;;;;;;;11.93;4.88;;;-4.60;85.80;;;;;;5074523;28;20028;-55
2021/03/10 02:20:56;;;;;;;18.65;6.47;;;-4.70;86.60;;;;;;5074753;28;20037;-57
2021/03/10 02:23:54;;;;;;;15.07;5.97;;;-4.80;86.60;;;;;;5074506;28;20070;-57
2021/03/10 02:26:50;;;;;;;20.92;6.00;;;-4.90;87.00;;;;;;5074664;28;20023;-56
2021/03/10 02:29:17;;;;;;;11.05;4.95;;;-4.90;87.40;;;;;;5072112;28;20499;-57
2021/03/10 02:31:49;;;;;;;18.27;6.63;;;-5.00;87.80;;;;;;5073206;28;20051;-57
2021/03/10 02:34:17;;;;;;;17.50;5.80;;;-5.00;88.10;;;;;;5074191;28;20031;-57
2021/03/10 02:36:48;;;;;;;15.00;5.80;;;-5.00;87.80;;;;;;5074239;28;20036;-55
2021/03/10 02:39:15;;;;;;;16.35;5.68;;;-5.10;87.30;;;;;;5074092;28;20028;-57
2021/03/10 02:41:41;;;;;;;13.75;4.72;;;-5.10;87.80;;;;;;5074245;28;20100;-54
2021/03/10 02:44:09;;;;;;;18.42;7.00;;;-5.20;88.00;;;;;;5073293;28;20099;-56
2021/03/10 02:46:35;;;;;;;12.45;5.50;;;-5.20;88.40;;;;;;5073896;28;20115;-51
2021/03/10 02:49:01;;;;;;;12.60;4.63;;;-5.30;88.20;;;;;;5074057;28;20060;-55
2021/03/10 02:51:28;;;;;;;12.23;5.15;;;-5.30;88.70;;;;;;5074121;28;20479;-55
2021/03/10 02:53:55;;;;;;;19.73;6.45;;;-5.30;90.30;;;;;;5073659;28;20131;-56
2021/03/10 02:56:21;;;;;;;22.13;6.35;;;-5.30;89.40;;;;;;5074006;28;20090;-55
2021/03/10 02:58:46;;;;;;;16.00;6.38;;;-5.30;89.70;;;;;;5072900;28;20029;-54
2021/03/10 03:01:14;;;;;;;18.42;6.13;;;-5.30;90.00;;;;;;5073924;28;20104;-55
2021/03/10 03:03:40;;;;;;;17.48;5.93;;;-5.30;90.80;;;;;;5073771;28;20375;-53
2021/03/10 03:06:06;;;;;;;16.27;6.53;;;-5.40;90.50;;;;;;5073893;28;20033;-57
2021/03/10 03:08:32;;;;;;;17.13;7.22;;;-5.50;90.30;;;;;;5073477;28;20060;-57
2021/03/10 03:10:58;;;;;;;11.27;5.13;;;-5.50;90.00;;;;;;5073865;28;20032;-57
2021/03/10 03:13:27;;;;;;;17.40;7.13;;;-5.50;90.50;;;;;;5072745;28;20098;-56
2021/03/10 03:15:57;;;;;;;19.45;6.72;;;-5.40;90.30;;;;;;5073493;28;20159;-56
2021/03/10 03:18:23;;;;;;;13.95;5.20;;;-5.40;90.30;;;;;;5067436;28;20028;-57
2021/03/10 03:20:49;;;;;;;16.85;6.25;;;-5.40;90.80;;;;;;5073436;28;20488;-58
2021/03/10 03:23:17;;;;;;;13.82;5.65;;;-5.40;90.20;;;;;;5071768;28;20050;-57
2021/03/10 03:25:43;;;;;;;12.48;5.78;;;-5.50;90.50;;;;;;5073402;28;20158;-58
2021/03/10 03:28:11;;;;;;;18.17;5.97;;;-5.50;90.10;;;;;;5072433;28;20610;-57
2021/03/10 03:30:38;;;;;;;13.10;5.32;;;-5.50;90.60;;;;;;5073285;28;20028;-55
2021/03/10 03:33:11;;;;;;;16.05;5.68;;;-5.50;91.20;;;;;;5073282;28;20058;-54
2021/03/10 03:35:37;;;;;;;14.13;5.40;;;-5.40;90.40;;;;;;5073061;28;20030;-57
2021/03/10 03:38:04;;;;;;;19.15;7.38;;;-5.40;90.50;;;;;;5073130;28;20028;-57
2021/03/10 03:40:31;;;;;;;18.50;5.45;;;-5.50;90.40;;;;;;5073155;28;20472;-58
2021/03/10 03:42:57;;;;;;;9.82;4.97;;;-5.50;90.60;;;;;;5071931;28;20039;-55
2021/03/10 03:45:22;;;;;;;18.83;6.07;;;-5.50;90.90;;;;;;5073006;28;20471;-55
2021/03/10 03:47:53;;;;;;;16.00;5.43;;;-5.50;91.00;;;;;;5072808;28;20384;-56
2021/03/10 03:50:20;;;;;;;16.27;6.55;;;-5.60;90.80;;;;;;5072639;28;20051;-57
2021/03/10 03:52:46;;;;;;;17.73;6.68;;;-5.60;90.80;;;;;;5072889;28;20036;-55
2021/03/10 03:55:12;;;;;;;23.30;6.35;;;-5.60;91.30;;;;;;5072795;28;20056;-56
2021/03/10 03:57:39;;;;;;;21.77;6.53;;;-5.70;91.40;;;;;;5071692;28;20407;-56
2021/03/10 04:00:08;;;;;;;16.85;5.88;;;-5.70;91.60;;;;;;5072870;28;20107;-58
2021/03/10 04:02:33;;;;;;;10.73;4.32;;;-5.80;91.20;;;;;;5072716;28;20021;-56
2021/03/10 04:04:59;;;;;;;15.35;5.53;;;-5.80;91.80;;;;;;5072630;28;20150;-56
2021/03/10 04:07:24;;;;;;;19.55;6.35;;;-5.90;91.60;;;;;;5072678;28;20028;-58
2021/03/10 04:09:50;;;;;;;21.50;6.15;;;-6.00;91.70;;;;;;5072566;28;20025;-57
2021/03/10 04:12:15;;;;;;;22.47;7.00;;;-6.00;92.00;;;;;;5072705;28;20029;-58
2021/03/10 04:14:41;;;;;;;14.67;6.30;;;-6.00;92.50;;;;;;5070190;28;20521;-58
2021/03/10 04:17:06;;;;;;;16.70;6.27;;;-6.10;92.30;;;;;;5072656;28;20059;-57
2021/03/10 04:19:32;;;;;;;10.45;4.82;;;-6.10;92.20;;;;;;5070944;28;20384;-57
2021/03/10 04:21:58;;;;;;;15.07;5.33;;;-6.10;92.10;;;;;;5072454;28;20046;-57
2021/03/10 04:24:23;;;;;;;11.67;5.63;;;-6.10;92.30;;;;;;5072475;28;20499;-55
2021/03/10 04:26:49;;;;;;;20.57;6.43;;;-6.20;93.30;;;;;;5072561;28;20030;-57
2021/03/10 04:29:14;;;;;;;15.20;6.03;;;-6.20;92.70;;;;;;5071534;28;20032;-58
2021/03/10 04:31:40;;;;;;;17.85;6.30;;;-6.20;92.60;;;;;;5072460;28;20107;-56
2021/03/10 04:34:05;;;;;;;18.00;6.00;;;-6.30;92.50;;;;;;5072100;28;20021;-57
2021/03/10 04:36:31;;;;;;;17.10;6.60;;;-6.30;92.40;;;;;;5072570;28;20020;-52
2021/03/10 04:38:56;;;;;;;22.27;8.67;;;-6.30;92.60;;;;;;5072114;28;20028;-56
2021/03/10 04:41:22;;;;;;;23.70;8.27;;;-6.30;93.00;;;;;;5072318;28;20052;-58
2021/03/10 04:43:47;;;;;;;27.77;9.67;;;-6.30;93.00;;;;;;5071607;28;20025;-56
2021/03/10 04:46:13;;;;;;;16.37;6.73;;;-6.40;93.50;;;;;;5070534;28;20021;-53
2021/03/10 04:48:38;;;;;;;20.13;6.97;;;-6.40;93.40;;;;;;5072116;28;20035;-57
2021/03/10 04:51:04;;;;;;;18.03;7.17;;;-6.40;92.90;;;;;;5072177;28;20024;-54
2021/03/10 04:53:29;;;;;;;18.70;6.13;;;-6.40;92.70;;;;;;5071674;28;20028;-58
2021/03/10 04:55:55;;;;;;;19.35;7.78;;;-6.50;93.50;;;;;;5076277;28;20064;-56
2021/03/10 04:58:20;;;;;;;16.23;6.20;;;-6.50;93.70;;;;;;5075345;28;20025;-56
2021/03/10 05:00:46;;;;;;;12.38;5.43;;;-6.50;94.10;;;;;;5072576;28;20443;-55
2021/03/10 05:03:12;;;;;;;15.60;6.03;;;-6.50;93.40;;;;;;5075849;28;20387;-57
2021/03/10 05:05:37;;;;;;;17.23;5.93;;;-6.60;93.70;;;;;;5075997;28;20085;-56
2021/03/10 05:08:03;;;;;;;24.87;7.10;;;-6.60;93.30;;;;;;5075902;28;20391;-55
2021/03/10 05:10:29;;;;;;;18.63;5.63;;;-6.60;93.70;;;;;;5076009;28;20052;-55
2021/03/10 05:12:54;;;;;;;13.57;5.57;;;-6.60;93.80;;;;;;5074865;28;20513;-53
2021/03/10 05:15:20;;;;;;;13.77;6.97;;;-6.60;93.50;;;;;;5084539;28;20111;-56
2021/03/10 05:17:45;;;;;;;19.93;6.80;;;-6.60;93.60;;;;;;5094454;28;20032;-56
2021/03/10 05:20:12;;;;;;;14.80;5.77;;;-6.60;95.20;;;;;;5095926;28;20487;-57
2021/03/10 05:22:38;;;;;;;17.17;6.87;;;-6.60;94.70;;;;;;5095808;28;20035;-57
2021/03/10 05:25:06;;;;;;;19.40;5.63;;;-6.60;94.50;;;;;;5096107;28;20383;-58
2021/03/10 05:27:31;;;;;;;17.87;5.87;;;-6.60;94.10;;;;;;5095176;28;20065;-56
2021/03/10 05:29:59;;;;;;;14.57;6.23;;;-6.60;94.20;;;;;;5095889;28;20028;-57
2021/03/10 05:32:24;;;;;;;15.63;5.73;;;-6.60;94.30;;;;;;5095916;28;20066;-56
2021/03/10 05:34:50;;;;;;;16.07;6.37;;;-6.60;94.20;;;;;;5095720;28;20487;-56
2021/03/10 05:37:16;;;;;;;12.73;5.47;;;-6.60;94.30;;;;;;5066273;28;20037;-57
2021/03/10 05:39:41;;;;;;;20.87;6.27;;;-6.60;94.50;;;;;;5055529;28;20025;-56
2021/03/10 05:42:07;;;;;;;15.67;4.97;;;-6.60;94.10;;;;;;5055561;28;20045;-56
2021/03/10 05:44:33;;;;;;;16.37;5.17;;;-6.60;94.60;;;;;;5054349;28;20016;-57
2021/03/10 05:46:59;;;;;;;17.67;5.63;;;-6.60;94.70;;;;;;5055303;28;20482;-57
2021/03/10 05:49:24;;;;;;;18.90;5.93;;;-6.60;94.40;;;;;;5055236;28;20064;-56
2021/03/10 05:51:50;;;;;;;20.60;6.30;;;-6.60;94.20;;;;;;5069599;28;20138;-54
2021/03/10 05:54:18;;;;;;;17.23;6.13;;;-6.50;94.10;;;;;;5075114;28;20101;-55
2021/03/10 05:56:45;;;;;;;14.40;5.88;;;-6.50;94.30;;;;;;5075395;28;20111;-52
2021/03/10 05:59:10;;;;;;;14.93;5.40;;;-6.50;94.60;;;;;;5074219;28;20438;-58
2021/03/10 06:01:36;;;;;;;11.17;5.13;;;-6.40;95.40;;;;;;5075053;28;20105;-54
2021/03/10 06:04:06;;;;;;;23.63;7.30;;;-6.30;95.10;;;;;;5074917;28;20027;-57
2021/03/10 06:06:35;;;;;;;17.03;6.53;;;-6.20;95.10;;;;;;5074679;28;20029;-57
2021/03/10 06:09:17;;;;;;;19.08;6.05;;;-6.10;95.00;;;;;;5073640;28;20059;-56
2021/03/10 06:11:57;;;;;;;19.20;5.87;;;-5.90;94.40;;;;;;5074890;28;20032;-55
2021/03/10 06:14:24;;;;;;;20.17;6.73;;;-5.50;94.60;;;;;;5073727;28;20028;-56
2021/03/10 06:17:05;;;;;;;23.35;7.38;;;-5.00;93.80;;;;;;5074844;28;20496;-54
2021/03/10 06:19:48;;;;;;;20.77;6.13;;;-4.10;92.50;;;;;;5074582;28;20484;-58
2021/03/10 06:22:15;;;;;;;16.67;5.72;;;-2.60;91.90;;;;;;5072048;28;20032;-60
2021/03/10 06:24:41;;;;;;;17.65;6.57;;;-1.30;88.80;;;;;;5074255;28;20013;-59
2021/03/10 06:27:08;;;;;;;19.08;7.38;;;-0.20;84.90;;;;;;5074652;28;20383;-59
2021/03/10 06:29:33;;;;;;;20.63;7.03;;;0.90;81.50;;;;;;5078520;28;20103;-60
2021/03/10 06:32:04;;;;;;;18.48;7.43;;;1.80;78.00;;;;;;5094852;28;20094;-60
2021/03/10 06:34:30;;;;;;;18.75;7.13;;;2.60;76.20;;;;;;5094784;28;20106;-55
2021/03/10 06:36:56;;;;;;;24.27;7.63;;;3.30;73.50;;;;;;5094201;28;20103;-59
2021/03/10 06:39:26;;;;;;;17.15;7.53;;;3.90;72.10;;;;;;5094408;28;20407;-58
2021/03/10 06:41:52;;;;;;;16.45;7.78;;;4.50;71.20;;;;;;5094432;28;20491;-58
2021/03/10 06:44:23;;;;;;;17.02;6.90;;;5.00;70.20;;;;;;5093339;28;20095;-58
2021/03/10 06:46:59;;;;;;;16.27;6.97;;;5.60;69.80;;;;;;5094405;28;20455;-58
2021/03/10 06:49:26;;;;;;;16.83;7.05;;;6.10;69.00;;;;;;5094437;28;20032;-58
2021/03/10 06:52:02;;;;;;;16.20;6.63;;;6.50;67.40;;;;;;5078784;28;20060;-59
2021/03/10 06:54:29;;;;;;;13.85;6.75;;;7.00;67.10;;;;;;5074070;28;20385;-59
2021/03/10 06:57:01;;;;;;;17.75;7.65;;;7.50;64.40;;;;;;5073828;28;20063;-59
2021/03/10 06:59:41;;;;;;;16.88;7.65;;;8.00;64.10;;;;;;5072625;28;20074;-60
2021/03/10 07:02:27;;;;;;;18.48;7.07;;;8.50;61.90;;;;;;5073550;28;20024;-59
2021/03/10 07:04:57;;;;;;;17.88;8.73;;;9.00;60.30;;;;;;5081818;28;20051;-61
2021/03/10 07:07:24;;;;;;;16.35;8.18;;;9.40;62.30;;;;;;5093848;28;20027;-59
2021/03/10 07:09:51;;;;;;;17.52;7.53;;;9.70;61.60;;;;;;5093587;28;20050;-61
2021/03/10 07:12:18;;;;;;;20.63;9.63;;;10.10;61.00;;;;;;5093565;28;20035;-61
2021/03/10 07:14:44;;;;;;;16.55;7.95;;;10.40;59.70;;;;;;5092630;28;20024;-61
2021/03/10 07:17:14;;;;;;;14.25;7.75;;;10.70;58.50;;;;;;5092863;28;20479;-61
2021/03/10 07:19:41;;;;;;;21.98;10.27;;;11.00;59.00;;;;;;5093688;28;20061;-61
2021/03/10 07:22:10;;;;;;;17.10;8.07;;;11.20;56.00;;;;;;5077176;28;20103;-62
2021/03/10 07:24:47;;;;;;;24.70;10.25;;;11.50;55.30;;;;;;5072643;28;20024;-61
2021/03/10 07:27:15;;;;;;;17.55;8.75;;;11.70;53.10;;;;;;5072658;28;20035;-62
2021/03/10 07:29:41;;;;;;;16.08;8.55;;;11.90;53.00;;;;;;5071708;28;20028;-61
2021/03/10 07:32:09;;;;;;;18.48;8.63;;;12.10;52.10;;;;;;5072777;28;20464;-61
2021/03/10 07:34:36;;;;;;;16.40;7.28;;;12.50;52.10;;;;;;5072856;28;20039;-61
2021/03/10 07:37:21;;;;;;;19.75;9.82;;;12.70;50.60;;;;;;5072767;28;20021;-61
2021/03/10 07:39:47;;;;;;;17.10;8.80;;;12.80;46.50;;;;;;5072514;28;20041;-61
2021/03/10 07:42:15;;;;;;;16.75;8.45;;;12.80;50.00;;;;;;5072521;28;20067;-61
2021/03/10 07:44:40;;;;;;;19.85;10.30;;;12.70;47.50;;;;;;5066920;28;20037;-61
2021/03/10 07:47:14;;;;;;;19.55;8.50;;;12.70;48.70;;;;;;5064914;28;20111;-61
2021/03/10 07:49:42;;;;;;;12.60;6.40;;;13.20;48.10;;;;;;5066874;28;20024;-60
2021/03/10 07:52:09;;;;;;;16.15;8.27;;;13.70;48.40;;;;;;5066842;28;20120;-61
2021/03/10 07:54:38;;;;;;;15.18;7.78;;;14.10;47.20;;;;;;5069049;28;20033;-62
2021/03/10 07:57:12;;;;;;;16.75;8.70;;;13.80;46.80;;;;;;5063809;28;20028;-62
2021/03/10 07:59:50;;;;;;;16.40;7.72;;;13.30;44.70;;;;;;5064087;28;20503;-61
2021/03/10 08:02:17;;;;;;;17.58;7.88;;;13.10;45.50;;;;;;5065872;28;20472;-60
2021/03/10 08:05:00;;;;;;;13.93;8.10;;;13.30;47.10;;;;;;5068685;28;20407;-62
2021/03/10 08:07:27;;;;;;;15.30;8.60;;;13.50;43.60;;;;;;5064417;28;20033;-62
2021/03/10 08:09:53;;;;;;;15.20;8.00;;;12.90;42.30;;;;;;5067940;28;20119;-62
2021/03/10 08:12:34;;;;;;;28.63;9.55;;;12.90;44.50;;;;;;5067321;28;20484;-58
2021/03/10 08:14:59;;;;;;;18.77;10.50;;;13.10;40.50;;;;;;5067519;28;20037;-62
2021/03/10 08:17:26;;;;;;;15.70;8.70;;;13.40;43.10;;;;;;5060111;28;20111;-61
2021/03/10 08:19:53;;;;;;;13.85;7.38;;;13.50;41.70;;;;;;5068092;28;20024;-61
2021/03/10 08:22:20;;;;;;;12.40;7.50;;;13.40;42.10;;;;;;5064207;28;20050;-61
2021/03/10 08:24:46;;;;;;;12.57;7.07;;;13.20;41.50;;;;;;5061963;28;20052;-59
2021/03/10 08:27:12;;;;;;;18.60;7.80;;;13.30;42.50;;;;;;5062952;28;20059;-63
2021/03/10 08:29:48;;;;;;;12.50;7.10;;;13.10;41.20;;;;;;5064063;28;20127;-62
2021/03/10 08:32:25;;;;;;;;;;;13.20;41.20;;;;;;5062687;28;20059;-62
2021/03/10 08:34:51;;;;;;;11.40;6.95;;;13.40;38.80;;;;;;5057141;28;19913;-62
2021/03/10 08:37:18;;;;;;;12.88;6.57;;;13.30;41.50;;;;;;5065059;28;20033;-61
2021/03/10 08:39:48;;;;;;;13.48;7.72;;;13.40;41.60;;;;;;5063016;28;20040;-59
2021/03/10 08:42:21;;;;;;;13.20;6.97;;;13.60;41.70;;;;;;5066644;28;20021;-62
2021/03/10 08:44:48;;;;;;;13.23;7.70;;;14.10;39.60;;;;;;5064379;28;20551;-62
2021/03/10 08:47:17;;;;;;;13.02;7.28;;;14.20;39.10;;;;;;5059395;28;20021;-62
2021/03/10 08:49:44;;;;;;;11.20;7.05;;;14.00;40.40;;;;;;5068098;28;20395;-62
2021/03/10 08:52:13;;;;;;;10.70;6.90;;;14.10;39.40;;;;;;5066777;28;20150;-62
2021/03/10 08:55:03;;;;;;;13.80;7.15;;;13.90;39.20;;;;;;5064570;28;20049;-61
2021/03/10 08:57:35;;;;;;;12.93;7.53;;;13.90;37.60;;;;;;5060291;28;20036;-61
2021/03/10 09:00:14;;;;;;;15.63;8.10;;;14.00;38.60;;;;;;5066485;28;20483;-61
2021/03/10 09:02:40;;;;;;;15.07;7.55;;;13.70;37.10;;;;;;5066588;28;20384;-62
2021/03/10 09:05:07;;;;;;;11.05;6.50;;;13.50;38.00;;;;;;5062988;28;20032;-61
2021/03/10 09:07:33;;;;;;;9.00;5.47;;;13.70;37.00;;;;;;5069246;28;20073;-61
2021/03/10 09:10:01;;;;;;;14.88;6.55;;;13.50;37.70;;;;;;5072424;28;20021;-61
2021/03/10 09:12:28;;;;;;;8.88;6.05;;;13.50;37.70;;;;;;5081355;28;20162;-61
2021/03/10 09:14:55;;;;;;;15.18;8.55;;;13.40;38.00;;;;;;5069395;28;20017;-60
2021/03/10 09:17:37;;;;;;;12.93;6.72;;;13.20;37.00;;;;;;5067433;28;20032;-62
2021/03/10 09:20:09;;;;;;;12.45;6.85;;;12.80;36.50;;;;;;5062225;28;20041;-62
2021/03/10 09:22:43;;;;;;;15.60;6.63;;;12.50;37.40;;;;;;5058558;28;20546;-60
2021/03/10 09:25:11;;;;;;;11.50;6.80;;;12.30;37.30;;;;;;5066426;28;20483;-59
2021/03/10 09:27:38;;;;;;;11.98;6.20;;;12.00;38.20;;;;;;5063202;28;20024;-60
2021/03/10 09:30:11;;;;;;;10.13;5.95;;;11.90;38.20;;;;;;5071129;28;20032;-61
2021/03/10 09:32:45;;;;;;;10.35;5.63;;;11.80;38.50;;;;;;5057595;28;20427;-62
2021/03/10 09:35:23;;;;;;;12.48;6.60;;;12.00;38.60;;;;;;5059240;28;20040;-62
2021/03/10 09:37:48;;;;;;;12.07;5.75;;;11.90;38.20;;;;;;5072221;28;20508;-61
2021/03/10 09:40:17;;;;;;;11.50;5.63;;;12.00;38.40;;;;;;5060487;28;20039;-61
2021/03/10 09:43:03;;;;;;;10.60;5.95;;;11.80;38.20;;;;;;5065144;28;20032;-64
2021/03/10 09:45:31;;;;;;;11.45;6.53;;;11.90;38.20;;;;;;5067881;28;20028;-60
2021/03/10 09:47:56;;;;;;;14.00;7.53;;;11.80;38.50;;;;;;5078265;28;20142;-62
2021/03/10 09:50:30;;;;;;;12.00;6.30;;;11.60;38.60;;;;;;5068019;28;20044;-61
2021/03/10 09:52:56;;;;;;;11.57;5.80;;;11.80;38.90;;;;;;5056078;28;20383;-62
2021/03/10 09:55:24;;;;;;;10.65;5.68;;;11.90;38.60;;;;;;5064721;28;20086;-62
2021/03/10 09:58:07;;;;;;;10.98;6.07;;;11.90;38.60;;;;;;5062400;28;20032;-61
2021/03/10 10:00:33;;;;;;;8.52;5.22;;;11.90;38.40;;;;;;5068422;28;20024;-61
2021/03/10 10:02:59;;;;;;;9.25;5.25;;;11.80;38.60;;;;;;5071917;28;20040;-61
2021/03/10 10:05:27;;;;;;;7.57;4.43;;;11.80;38.80;;;;;;5074369;28;20395;-62
2021/03/10 10:07:57;;;;;;;8.68;4.68;;;11.80;37.60;;;;;;5074422;28;20028;-62
2021/03/10 10:10:25;;;;;;;12.60;5.30;;;12.00;38.20;;;;;;5074359;28;20025;-61
2021/03/10 10:12:53;;;;;;;15.38;6.22;;;11.90;37.30;;;;;;5073366;28;20038;-61
2021/03/10 10:15:21;;;;;;;12.25;6.10;;;11.80;37.40;;;;;;5074376;28;20017;-61
2021/03/10 10:17:55;;;;;;;8.95;5.10;;;11.70;37.10;;;;;;5071444;28;20499;-60
2021/03/10 10:20:23;;;;;;;10.30;4.93;;;11.50;37.60;;;;;;5057161;28;20021;-59
2021/03/10 10:22:49;;;;;;;11.45;4.93;;;11.20;37.60;;;;;;5053926;28;20504;-59
2021/03/10 10:25:16;;;;;;;9.30;4.93;;;11.00;37.70;;;;;;5066594;28;20032;-59
2021/03/10 10:27:46;;;;;;;8.02;4.85;;;10.80;37.60;;;;;;5055279;28;20499;-59
2021/03/10 10:30:14;;;;;;;7.68;4.78;;;10.40;37.80;;;;;;5055220;28;20037;-58
2021/03/10 10:32:41;;;;;;;10.32;4.40;;;9.80;38.70;;;;;;5064818;28;20491;-58
2021/03/10 10:35:08;;;;;;;8.25;3.83;;;9.50;39.40;;;;;;5062805;28;20090;-59
2021/03/10 10:37:33;;;;;;;7.90;3.67;;;9.20;38.80;;;;;;5067559;28;20071;-58
2021/03/10 10:39:59;;;;;;;6.97;3.83;;;9.10;39.60;;;;;;5054000;28;20513;-58
2021/03/10 10:42:26;;;;;;;15.27;7.20;;;9.00;39.80;;;;;;5054518;28;20068;-58
2021/03/10 10:44:52;;;;;;;7.57;4.45;;;8.90;40.40;;;;;;5065681;28;20040;-59
2021/03/10 10:47:18;;;;;;;11.00;4.80;;;8.80;39.80;;;;;;5057181;28;20033;-58
2021/03/10 10:49:44;;;;;;;11.90;5.63;;;8.60;40.20;;;;;;5067350;28;20062;-58
2021/03/10 10:52:10;;;;;;;7.57;4.72;;;8.50;40.90;;;;;;5064767;28;20037;-61
2021/03/10 10:54:35;;;;;;;10.88;5.47;;;8.30;41.00;;;;;;5061972;28;20447;-59
2021/03/10 10:57:01;;;;;;;10.30;4.93;;;8.20;41.20;;;;;;5066655;28;20150;-59
2021/03/10 10:59:26;;;;;;;7.97;4.35;;;8.10;40.20;;;;;;5052502;28;20375;-60
2021/03/10 11:01:52;;;;;;;7.20;3.70;;;8.00;40.00;;;;;;5053662;28;20029;-59
2021/03/10 11:04:18;;;;;;;9.35;4.38;;;8.20;40.10;;;;;;5053268;28;20024;-59
2021/03/10 11:06:44;;;;;;;7.50;4.10;;;8.10;39.70;;;;;;5053611;28;20029;-59
2021/03/10 11:09:09;;;;;;;8.35;4.05;;;8.10;39.80;;;;;;5063907;28;20032;-59
2021/03/10 11:11:35;;;;;;;13.30;5.57;;;8.10;40.10;;;;;;5064180;28;20424;-60
2021/03/10 11:14:00;;;;;;;8.65;4.45;;;8.20;40.10;;;;;;5066254;28;20035;-60
2021/03/10 11:16:26;;;;;;;11.57;5.93;;;8.30;39.60;;;;;;5074324;28;20040;-59
2021/03/10 11:18:51;;;;;;;6.72;4.15;;;8.30;39.60;;;;;;5059644;28;20075;-59
2021/03/10 11:21:17;;;;;;;10.82;3.90;;;8.20;39.40;;;;;;5067072;28;20025;-60
2021/03/10 11:23:43;;;;;;;8.02;4.75;;;8.10;39.70;;;;;;5060907;28;20115;-59
2021/03/10 11:26:09;;;;;;;8.35;4.20;;;7.90;39.60;;;;;;5061080;28;20116;-59
2021/03/10 11:28:34;;;;;;;10.43;4.50;;;7.90;39.80;;;;;;5059117;28;20037;-60
2021/03/10 11:31:01;;;;;;;7.93;5.00;;;7.90;39.90;;;;;;5066891;28;20032;-60
2021/03/10 11:33:26;;;;;;;8.60;4.57;;;8.00;40.60;;;;;;5063784;28;20468;-59
2021/03/10 11:35:53;;;;;;;10.48;5.50;;;8.10;40.30;;;;;;5058356;28;20037;-60
2021/03/10 11:38:18;;;;;;;8.43;4.65;;;8.30;39.90;;;;;;5065882;28;20067;-59
2021/03/10 11:40:44;;;;;;;7.07;4.20;;;8.30;39.60;;;;;;5063439;28;20052;-59
2021/03/10 11:43:10;;;;;;;7.63;4.38;;;8.20;40.00;;;;;;5058283;28;20057;-59
2021/03/10 11:45:36;;;;;;;8.75;4.50;;;8.20;40.10;;;;;;5071569;28;20021;-56
2021/03/10 11:48:01;;;;;;;9.05;4.88;;;8.20;40.10;;;;;;5069352;28;20040;-58
2021/03/10 11:50:27;;;;;;;11.48;5.20;;;8.20;40.10;;;;;;5068596;28;20154;-59
2021/03/10 11:52:53;;;;;;;8.85;4.60;;;8.20;40.00;;;;;;5068052;28;20510;-59
2021/03/10 11:55:18;;;;;;;7.38;4.18;;;8.20;40.30;;;;;;5066611;28;20044;-58
2021/03/10 11:57:44;;;;;;;6.60;3.88;;;8.30;40.50;;;;;;5059650;28;20032;-59
2021/03/10 12:00:10;;;;;;;8.55;5.03;;;8.30;40.60;;;;;;5071921;28;20196;-59
2021/03/10 12:02:36;;;;;;;9.00;4.68;;;8.30;40.40;;;;;;5071833;28;20357;-59
2021/03/10 12:05:02;;;;;;;9.25;5.15;;;8.30;40.50;;;;;;5071597;28;20070;-56
2021/03/10 12:07:27;;;;;;;10.00;4.45;;;8.20;40.10;;;;;;5071949;28;20054;-55
2021/03/10 12:09:53;;;;;;;10.57;5.78;;;8.20;40.10;;;;;;5072050;28;20028;-58
2021/03/10 12:12:19;;;;;;;12.85;6.57;;;8.20;40.30;;;;;;5071287;28;20655;-58
2021/03/10 12:14:45;;;;;;;9.60;5.13;;;8.10;39.90;;;;;;5076602;28;20378;-59
2021/03/10 12:17:12;;;;;;;11.18;5.30;;;8.00;40.30;;;;;;5076401;28;20025;-58
2021/03/10 12:19:39;;;;;;;8.93;4.30;;;7.90;40.60;;;;;;5071550;28;20059;-59
2021/03/10 12:22:07;;;;;;;8.88;3.97;;;8.00;41.00;;;;;;5071989;28;20491;-58
2021/03/10 12:24:33;;;;;;;9.65;5.35;;;8.10;41.20;;;;;;5072100;28;20263;-58
2021/03/10 12:26:58;;;;;;;10.00;4.90;;;8.10;41.40;;;;;;5071934;28;20442;-59
2021/03/10 12:29:24;;;;;;;13.25;5.88;;;8.10;41.50;;;;;;5067930;28;20045;-59
2021/03/10 12:31:50;;;;;;;10.02;4.93;;;8.20;41.50;;;;;;5070147;28;20123;-59
2021/03/10 12:34:15;;;;;;;10.50;4.78;;;8.20;41.40;;;;;;5071297;28;20035;-58
2021/03/10 12:36:41;;;;;;;9.68;4.47;;;8.20;41.40;;;;;;5072011;28;20065;-59
2021/03/10 12:39:07;;;;;;;8.00;4.47;;;8.20;40.70;;;;;;5066074;28;20067;-59
2021/03/10 12:41:32;;;;;;;9.20;4.80;;;8.10;40.70;;;;;;5069190;28;20444;-59
2021/03/10 12:43:58;;;;;;;6.47;4.13;;;8.20;41.00;;;;;;5070521;28;20029;-59